sensor_id;sensor_type;location;lat;lon;timestamp;P1;durP1;ratioP1;P2;durP2;ratioP2
37349;SDS011;23231;52.358;4.926;2024-02-16T00:03:28;6.68;;;3.63;;
37349;SDS011;23231;52.358;4.926;2024-02-16T00:08:54;5.40;;;3.47;;
37349;SDS011;23231;52.358;4.926;2024-02-16T00:14:25;9.20;;;3.75;;
37349;SDS011;23231;52.358;4.926;2024-02-16T00:19:30;7.25;;;3.83;;
37349;SDS011;23231;52.358;4.926;2024-02-16T00:24:34;8.60;;;3.70;;
37349;SDS011;23231;52.358;4.926;2024-02-16T00:29:38;8.02;;;3.72;;
37349;SDS011;23231;52.358;4.926;2024-02-16T00:34:49;6.60;;;3.60;;
37349;SDS011;23231;52.358;4.926;2024-02-16T00:39:59;8.32;;;3.83;;
37349;SDS011;23231;52.358;4.926;2024-02-16T00:45:20;6.38;;;3.33;;
37349;SDS011;23231;52.358;4.926;2024-02-16T00:55:36;7.10;;;3.50;;
37349;SDS011;23231;52.358;4.926;2024-02-16T01:00:47;8.20;;;3.47;;
37349;SDS011;23231;52.358;4.926;2024-02-16T01:05:52;8.23;;;3.80;;
37349;SDS011;23231;52.358;4.926;2024-02-16T01:10:58;6.97;;;3.60;;
37349;SDS011;23231;52.358;4.926;2024-02-16T01:16:06;7.50;;;3.85;;
37349;SDS011;23231;52.358;4.926;2024-02-16T01:21:14;6.35;;;3.13;;
37349;SDS011;23231;52.358;4.926;2024-02-16T01:26:24;6.78;;;3.58;;
37349;SDS011;23231;52.358;4.926;2024-02-16T01:31:30;8.93;;;4.55;;
37349;SDS011;23231;52.358;4.926;2024-02-16T01:36:37;6.53;;;3.83;;
37349;SDS011;23231;52.358;4.926;2024-02-16T01:41:39;8.80;;;3.90;;
37349;SDS011;23231;52.358;4.926;2024-02-16T01:46:49;7.50;;;3.70;;
37349;SDS011;23231;52.358;4.926;2024-02-16T01:52:02;8.35;;;4.32;;
37349;SDS011;23231;52.358;4.926;2024-02-16T01:57:12;6.50;;;3.80;;
37349;SDS011;23231;52.358;4.926;2024-02-16T02:02:39;7.97;;;4.00;;
37349;SDS011;23231;52.358;4.926;2024-02-16T02:07:48;5.95;;;3.85;;
37349;SDS011;23231;52.358;4.926;2024-02-16T02:12:55;6.68;;;3.83;;
37349;SDS011;23231;52.358;4.926;2024-02-16T02:18:02;6.72;;;3.67;;
37349;SDS011;23231;52.358;4.926;2024-02-16T02:23:08;7.15;;;4.32;;
37349;SDS011;23231;52.358;4.926;2024-02-16T02:28:37;6.70;;;3.85;;
37349;SDS011;23231;52.358;4.926;2024-02-16T02:33:45;9.65;;;4.32;;
37349;SDS011;23231;52.358;4.926;2024-02-16T02:38:50;8.20;;;3.97;;
37349;SDS011;23231;52.358;4.926;2024-02-16T02:44:03;9.40;;;3.80;;
37349;SDS011;23231;52.358;4.926;2024-02-16T02:49:10;6.75;;;3.58;;
37349;SDS011;23231;52.358;4.926;2024-02-16T02:54:17;8.43;;;3.85;;
37349;SDS011;23231;52.358;4.926;2024-02-16T02:59:22;7.80;;;4.00;;
37349;SDS011;23231;52.358;4.926;2024-02-16T03:04:29;6.70;;;4.00;;
37349;SDS011;23231;52.358;4.926;2024-02-16T03:09:35;8.82;;;4.10;;
37349;SDS011;23231;52.358;4.926;2024-02-16T03:14:51;8.88;;;4.32;;
37349;SDS011;23231;52.358;4.926;2024-02-16T03:19:57;6.73;;;4.00;;
37349;SDS011;23231;52.358;4.926;2024-02-16T03:25:26;7.78;;;3.70;;
37349;SDS011;23231;52.358;4.926;2024-02-16T03:30:41;7.50;;;4.18;;
37349;SDS011;23231;52.358;4.926;2024-02-16T03:35:52;7.25;;;3.88;;
37349;SDS011;23231;52.358;4.926;2024-02-16T03:41:15;7.55;;;3.70;;
37349;SDS011;23231;52.358;4.926;2024-02-16T03:46:26;9.77;;;4.15;;
37349;SDS011;23231;52.358;4.926;2024-02-16T03:51:32;6.63;;;3.90;;
37349;SDS011;23231;52.358;4.926;2024-02-16T04:01:48;8.00;;;3.92;;
37349;SDS011;23231;52.358;4.926;2024-02-16T04:06:53;7.73;;;4.10;;
37349;SDS011;23231;52.358;4.926;2024-02-16T04:11:59;6.68;;;3.92;;
37349;SDS011;23231;52.358;4.926;2024-02-16T04:17:09;6.00;;;3.78;;
37349;SDS011;23231;52.358;4.926;2024-02-16T04:22:18;10.02;;;4.10;;
37349;SDS011;23231;52.358;4.926;2024-02-16T04:27:24;6.68;;;4.00;;
37349;SDS011;23231;52.358;4.926;2024-02-16T04:32:31;6.63;;;3.80;;
37349;SDS011;23231;52.358;4.926;2024-02-16T04:37:37;8.07;;;4.15;;
37349;SDS011;23231;52.358;4.926;2024-02-16T04:42:43;7.15;;;3.83;;
37349;SDS011;23231;52.358;4.926;2024-02-16T04:47:49;6.72;;;3.30;;
37349;SDS011;23231;52.358;4.926;2024-02-16T04:52:58;6.22;;;4.05;;
37349;SDS011;23231;52.358;4.926;2024-02-16T04:58:03;8.40;;;4.25;;
37349;SDS011;23231;52.358;4.926;2024-02-16T05:03:12;7.90;;;4.55;;
37349;SDS011;23231;52.358;4.926;2024-02-16T05:08:24;10.73;;;4.47;;
37349;SDS011;23231;52.358;4.926;2024-02-16T05:13:31;7.78;;;4.30;;
37349;SDS011;23231;52.358;4.926;2024-02-16T05:18:37;7.00;;;3.97;;
37349;SDS011;23231;52.358;4.926;2024-02-16T05:23:50;6.95;;;4.00;;
37349;SDS011;23231;52.358;4.926;2024-02-16T05:29:01;6.03;;;3.92;;
37349;SDS011;23231;52.358;4.926;2024-02-16T05:34:05;6.72;;;4.00;;
37349;SDS011;23231;52.358;4.926;2024-02-16T05:39:27;7.47;;;4.30;;
37349;SDS011;23231;52.358;4.926;2024-02-16T05:44:40;9.27;;;4.63;;
37349;SDS011;23231;52.358;4.926;2024-02-16T05:49:51;7.30;;;4.20;;
37349;SDS011;23231;52.358;4.926;2024-02-16T05:54:56;7.30;;;4.38;;
37349;SDS011;23231;52.358;4.926;2024-02-16T06:00:01;7.47;;;4.45;;
37349;SDS011;23231;52.358;4.926;2024-02-16T06:05:11;8.07;;;5.07;;
37349;SDS011;23231;52.358;4.926;2024-02-16T06:10:21;8.02;;;4.47;;
37349;SDS011;23231;52.358;4.926;2024-02-16T06:15:25;9.20;;;5.13;;
37349;SDS011;23231;52.358;4.926;2024-02-16T06:20:38;10.38;;;4.70;;
37349;SDS011;23231;52.358;4.926;2024-02-16T06:25:38;7.03;;;4.55;;
37349;SDS011;23231;52.358;4.926;2024-02-16T06:30:38;7.55;;;4.93;;
37349;SDS011;23231;52.358;4.926;2024-02-16T06:35:39;8.82;;;4.80;;
37349;SDS011;23231;52.358;4.926;2024-02-16T06:40:39;8.05;;;5.28;;
37349;SDS011;23231;52.358;4.926;2024-02-16T06:45:40;9.65;;;5.00;;
37349;SDS011;23231;52.358;4.926;2024-02-16T06:50:40;8.27;;;4.72;;
37349;SDS011;23231;52.358;4.926;2024-02-16T06:55:41;10.63;;;5.72;;
37349;SDS011;23231;52.358;4.926;2024-02-16T07:00:41;7.55;;;4.80;;
37349;SDS011;23231;52.358;4.926;2024-02-16T07:05:42;8.57;;;5.00;;
37349;SDS011;23231;52.358;4.926;2024-02-16T07:10:44;11.18;;;5.47;;
37349;SDS011;23231;52.358;4.926;2024-02-16T07:15:44;8.60;;;5.18;;
37349;SDS011;23231;52.358;4.926;2024-02-16T07:20:45;10.90;;;5.97;;
37349;SDS011;23231;52.358;4.926;2024-02-16T07:25:45;9.77;;;5.40;;
37349;SDS011;23231;52.358;4.926;2024-02-16T07:30:46;11.25;;;5.85;;
37349;SDS011;23231;52.358;4.926;2024-02-16T07:35:47;10.38;;;6.13;;
37349;SDS011;23231;52.358;4.926;2024-02-16T07:40:47;10.27;;;5.50;;
37349;SDS011;23231;52.358;4.926;2024-02-16T07:45:50;11.10;;;6.07;;
37349;SDS011;23231;52.358;4.926;2024-02-16T07:50:53;10.38;;;5.75;;
37349;SDS011;23231;52.358;4.926;2024-02-16T07:55:54;8.77;;;5.57;;
37349;SDS011;23231;52.358;4.926;2024-02-16T08:00:54;10.90;;;5.57;;
37349;SDS011;23231;52.358;4.926;2024-02-16T08:05:55;12.75;;;5.95;;
37349;SDS011;23231;52.358;4.926;2024-02-16T08:10:56;13.27;;;5.78;;
37349;SDS011;23231;52.358;4.926;2024-02-16T08:15:56;12.00;;;5.95;;
37349;SDS011;23231;52.358;4.926;2024-02-16T08:20:57;10.63;;;5.65;;
37349;SDS011;23231;52.358;4.926;2024-02-16T08:25:58;13.98;;;6.50;;
37349;SDS011;23231;52.358;4.926;2024-02-16T08:30:58;11.10;;;6.30;;
37349;SDS011;23231;52.358;4.926;2024-02-16T08:35:58;9.57;;;6.15;;
37349;SDS011;23231;52.358;4.926;2024-02-16T08:40:59;9.63;;;6.30;;
37349;SDS011;23231;52.358;4.926;2024-02-16T08:46:00;12.77;;;5.97;;
37349;SDS011;23231;52.358;4.926;2024-02-16T08:51:00;13.50;;;6.75;;
37349;SDS011;23231;52.358;4.926;2024-02-16T08:56:02;10.68;;;6.35;;
37349;SDS011;23231;52.358;4.926;2024-02-16T09:01:02;11.38;;;6.68;;
37349;SDS011;23231;52.358;4.926;2024-02-16T09:06:03;10.65;;;6.30;;
37349;SDS011;23231;52.358;4.926;2024-02-16T09:11:04;12.07;;;7.10;;
37349;SDS011;23231;52.358;4.926;2024-02-16T09:16:05;11.75;;;6.80;;
37349;SDS011;23231;52.358;4.926;2024-02-16T09:21:07;12.45;;;7.28;;
37349;SDS011;23231;52.358;4.926;2024-02-16T09:26:08;13.77;;;7.45;;
37349;SDS011;23231;52.358;4.926;2024-02-16T09:31:14;15.32;;;7.97;;
37349;SDS011;23231;52.358;4.926;2024-02-16T09:36:15;19.63;;;9.23;;
37349;SDS011;23231;52.358;4.926;2024-02-16T09:41:15;23.73;;;10.82;;
37349;SDS011;23231;52.358;4.926;2024-02-16T09:46:16;28.38;;;11.50;;
37349;SDS011;23231;52.358;4.926;2024-02-16T09:51:16;29.10;;;12.57;;
37349;SDS011;23231;52.358;4.926;2024-02-16T09:56:17;31.20;;;11.90;;
37349;SDS011;23231;52.358;4.926;2024-02-16T10:01:18;38.40;;;13.40;;
37349;SDS011;23231;52.358;4.926;2024-02-16T10:06:20;27.20;;;12.07;;
37349;SDS011;23231;52.358;4.926;2024-02-16T10:11:24;28.70;;;11.93;;
37349;SDS011;23231;52.358;4.926;2024-02-16T10:16:27;30.70;;;12.57;;
37349;SDS011;23231;52.358;4.926;2024-02-16T10:21:28;29.85;;;12.10;;
37349;SDS011;23231;52.358;4.926;2024-02-16T10:26:29;29.17;;;11.27;;
37349;SDS011;23231;52.358;4.926;2024-02-16T10:31:32;21.85;;;11.48;;
37349;SDS011;23231;52.358;4.926;2024-02-16T10:36:33;21.90;;;9.88;;
37349;SDS011;23231;52.358;4.926;2024-02-16T10:41:37;22.70;;;10.60;;
37349;SDS011;23231;52.358;4.926;2024-02-16T10:46:38;20.92;;;9.68;;
37349;SDS011;23231;52.358;4.926;2024-02-16T10:51:41;17.85;;;8.75;;
37349;SDS011;23231;52.358;4.926;2024-02-16T10:56:44;14.43;;;7.55;;
37349;SDS011;23231;52.358;4.926;2024-02-16T11:01:45;15.98;;;7.45;;
37349;SDS011;23231;52.358;4.926;2024-02-16T11:06:51;14.13;;;7.65;;
37349;SDS011;23231;52.358;4.926;2024-02-16T11:11:54;15.25;;;8.32;;
37349;SDS011;23231;52.358;4.926;2024-02-16T11:16:55;16.27;;;8.68;;
37349;SDS011;23231;52.358;4.926;2024-02-16T11:21:57;16.48;;;8.77;;
37349;SDS011;23231;52.358;4.926;2024-02-16T11:26:58;17.20;;;8.32;;
37349;SDS011;23231;52.358;4.926;2024-02-16T11:31:58;16.42;;;8.77;;
37349;SDS011;23231;52.358;4.926;2024-02-16T11:36:59;17.00;;;9.02;;
37349;SDS011;23231;52.358;4.926;2024-02-16T11:42:07;14.35;;;7.63;;
37349;SDS011;23231;52.358;4.926;2024-02-16T11:47:11;14.35;;;6.78;;
37349;SDS011;23231;52.358;4.926;2024-02-16T11:52:26;10.50;;;5.43;;
37349;SDS011;23231;52.358;4.926;2024-02-16T11:57:27;14.25;;;6.32;;
37349;SDS011;23231;52.358;4.926;2024-02-16T12:02:27;10.68;;;6.45;;
37349;SDS011;23231;52.358;4.926;2024-02-16T12:07:28;8.98;;;5.47;;
37349;SDS011;23231;52.358;4.926;2024-02-16T12:12:29;10.02;;;5.32;;
37349;SDS011;23231;52.358;4.926;2024-02-16T12:17:34;11.07;;;5.55;;
37349;SDS011;23231;52.358;4.926;2024-02-16T12:22:35;14.25;;;6.55;;
37349;SDS011;23231;52.358;4.926;2024-02-16T12:27:35;9.27;;;5.65;;
37349;SDS011;23231;52.358;4.926;2024-02-16T12:32:36;11.45;;;5.93;;
37349;SDS011;23231;52.358;4.926;2024-02-16T12:37:36;15.27;;;5.60;;
37349;SDS011;23231;52.358;4.926;2024-02-16T12:42:37;11.20;;;5.07;;
37349;SDS011;23231;52.358;4.926;2024-02-16T12:47:38;9.23;;;5.25;;
37349;SDS011;23231;52.358;4.926;2024-02-16T12:52:38;11.40;;;5.95;;
37349;SDS011;23231;52.358;4.926;2024-02-16T12:57:38;10.38;;;5.00;;
37349;SDS011;23231;52.358;4.926;2024-02-16T13:02:39;11.77;;;5.20;;
37349;SDS011;23231;52.358;4.926;2024-02-16T13:07:39;10.70;;;5.45;;
37349;SDS011;23231;52.358;4.926;2024-02-16T13:12:41;15.40;;;7.07;;
37349;SDS011;23231;52.358;4.926;2024-02-16T13:17:43;19.77;;;7.60;;
37349;SDS011;23231;52.358;4.926;2024-02-16T13:22:43;19.48;;;8.30;;
37349;SDS011;23231;52.358;4.926;2024-02-16T13:27:43;15.20;;;7.65;;
37349;SDS011;23231;52.358;4.926;2024-02-16T13:32:44;12.65;;;7.53;;
37349;SDS011;23231;52.358;4.926;2024-02-16T13:37:44;17.75;;;7.85;;
37349;SDS011;23231;52.358;4.926;2024-02-16T13:42:45;11.10;;;6.55;;
37349;SDS011;23231;52.358;4.926;2024-02-16T13:47:45;15.20;;;6.90;;
37349;SDS011;23231;52.358;4.926;2024-02-16T13:52:46;14.23;;;7.10;;
37349;SDS011;23231;52.358;4.926;2024-02-16T13:57:46;14.30;;;7.00;;
37349;SDS011;23231;52.358;4.926;2024-02-16T14:02:47;16.30;;;8.55;;
37349;SDS011;23231;52.358;4.926;2024-02-16T14:07:47;21.45;;;9.07;;
37349;SDS011;23231;52.358;4.926;2024-02-16T14:12:48;15.73;;;8.60;;
37349;SDS011;23231;52.358;4.926;2024-02-16T14:17:49;17.05;;;8.45;;
37349;SDS011;23231;52.358;4.926;2024-02-16T14:22:49;18.75;;;9.85;;
37349;SDS011;23231;52.358;4.926;2024-02-16T14:27:50;20.77;;;10.15;;
37349;SDS011;23231;52.358;4.926;2024-02-16T14:32:50;17.75;;;9.38;;
37349;SDS011;23231;52.358;4.926;2024-02-16T14:37:51;18.60;;;9.18;;
37349;SDS011;23231;52.358;4.926;2024-02-16T14:42:52;17.00;;;8.80;;
37349;SDS011;23231;52.358;4.926;2024-02-16T14:47:53;19.30;;;8.93;;
37349;SDS011;23231;52.358;4.926;2024-02-16T14:52:53;18.50;;;9.50;;
37349;SDS011;23231;52.358;4.926;2024-02-16T14:57:54;17.58;;;10.13;;
37349;SDS011;23231;52.358;4.926;2024-02-16T15:02:54;17.88;;;9.77;;
37349;SDS011;23231;52.358;4.926;2024-02-16T15:07:54;18.52;;;9.65;;
37349;SDS011;23231;52.358;4.926;2024-02-16T15:12:55;18.48;;;9.38;;
37349;SDS011;23231;52.358;4.926;2024-02-16T15:17:55;19.33;;;8.73;;
37349;SDS011;23231;52.358;4.926;2024-02-16T15:22:56;16.55;;;8.88;;
37349;SDS011;23231;52.358;4.926;2024-02-16T15:27:57;16.50;;;9.57;;
37349;SDS011;23231;52.358;4.926;2024-02-16T15:32:59;18.13;;;8.85;;
37349;SDS011;23231;52.358;4.926;2024-02-16T15:37:59;14.93;;;8.75;;
37349;SDS011;23231;52.358;4.926;2024-02-16T15:43:00;16.35;;;8.75;;
37349;SDS011;23231;52.358;4.926;2024-02-16T15:48:02;16.67;;;8.57;;
37349;SDS011;23231;52.358;4.926;2024-02-16T15:53:03;17.83;;;8.50;;
37349;SDS011;23231;52.358;4.926;2024-02-16T15:58:04;17.30;;;8.93;;
37349;SDS011;23231;52.358;4.926;2024-02-16T16:03:04;15.43;;;8.50;;
37349;SDS011;23231;52.358;4.926;2024-02-16T16:08:05;16.98;;;8.07;;
37349;SDS011;23231;52.358;4.926;2024-02-16T16:13:05;15.90;;;8.40;;
37349;SDS011;23231;52.358;4.926;2024-02-16T16:18:08;18.90;;;9.50;;
37349;SDS011;23231;52.358;4.926;2024-02-16T16:23:08;19.65;;;9.32;;
37349;SDS011;23231;52.358;4.926;2024-02-16T16:28:09;20.63;;;10.07;;
37349;SDS011;23231;52.358;4.926;2024-02-16T16:33:09;16.48;;;8.80;;
37349;SDS011;23231;52.358;4.926;2024-02-16T16:38:10;15.90;;;8.45;;
37349;SDS011;23231;52.358;4.926;2024-02-16T16:43:11;21.13;;;9.00;;
37349;SDS011;23231;52.358;4.926;2024-02-16T16:48:13;19.20;;;9.07;;
37349;SDS011;23231;52.358;4.926;2024-02-16T16:53:13;16.65;;;8.90;;
37349;SDS011;23231;52.358;4.926;2024-02-16T16:58:14;17.08;;;9.18;;
37349;SDS011;23231;52.358;4.926;2024-02-16T17:03:14;14.52;;;8.23;;
37349;SDS011;23231;52.358;4.926;2024-02-16T17:08:14;16.20;;;8.90;;
37349;SDS011;23231;52.358;4.926;2024-02-16T17:13:15;14.30;;;8.30;;
37349;SDS011;23231;52.358;4.926;2024-02-16T17:18:15;15.70;;;8.15;;
37349;SDS011;23231;52.358;4.926;2024-02-16T17:23:16;14.60;;;7.75;;
37349;SDS011;23231;52.358;4.926;2024-02-16T17:28:16;17.70;;;8.23;;
37349;SDS011;23231;52.358;4.926;2024-02-16T17:33:17;13.73;;;8.48;;
37349;SDS011;23231;52.358;4.926;2024-02-16T17:38:18;16.20;;;7.68;;
37349;SDS011;23231;52.358;4.926;2024-02-16T17:43:19;15.57;;;7.25;;
37349;SDS011;23231;52.358;4.926;2024-02-16T17:48:19;17.45;;;7.57;;
37349;SDS011;23231;52.358;4.926;2024-02-16T17:53:20;11.65;;;6.97;;
37349;SDS011;23231;52.358;4.926;2024-02-16T17:58:20;17.90;;;7.93;;
37349;SDS011;23231;52.358;4.926;2024-02-16T18:03:21;16.77;;;7.50;;
37349;SDS011;23231;52.358;4.926;2024-02-16T18:08:22;18.27;;;7.47;;
37349;SDS011;23231;52.358;4.926;2024-02-16T18:13:22;17.77;;;8.45;;
37349;SDS011;23231;52.358;4.926;2024-02-16T18:18:24;17.15;;;7.43;;
37349;SDS011;23231;52.358;4.926;2024-02-16T18:23:26;18.20;;;8.05;;
37349;SDS011;23231;52.358;4.926;2024-02-16T18:28:28;19.17;;;8.38;;
37349;SDS011;23231;52.358;4.926;2024-02-16T18:33:29;17.52;;;7.45;;
37349;SDS011;23231;52.358;4.926;2024-02-16T18:38:29;15.40;;;7.72;;
37349;SDS011;23231;52.358;4.926;2024-02-16T18:43:30;12.38;;;7.40;;
37349;SDS011;23231;52.358;4.926;2024-02-16T18:48:31;16.80;;;7.40;;
37349;SDS011;23231;52.358;4.926;2024-02-16T18:53:31;19.60;;;7.78;;
37349;SDS011;23231;52.358;4.926;2024-02-16T18:58:32;22.25;;;8.23;;
37349;SDS011;23231;52.358;4.926;2024-02-16T19:03:32;18.85;;;7.97;;
37349;SDS011;23231;52.358;4.926;2024-02-16T19:08:33;18.38;;;8.23;;
37349;SDS011;23231;52.358;4.926;2024-02-16T19:13:36;18.33;;;8.80;;
37349;SDS011;23231;52.358;4.926;2024-02-16T19:18:39;28.20;;;9.02;;
37349;SDS011;23231;52.358;4.926;2024-02-16T19:23:39;21.98;;;8.85;;
37349;SDS011;23231;52.358;4.926;2024-02-16T19:28:40;20.83;;;9.25;;
37349;SDS011;23231;52.358;4.926;2024-02-16T19:33:40;19.73;;;9.18;;
37349;SDS011;23231;52.358;4.926;2024-02-16T19:38:41;29.73;;;9.18;;
37349;SDS011;23231;52.358;4.926;2024-02-16T19:43:41;23.02;;;8.48;;
37349;SDS011;23231;52.358;4.926;2024-02-16T19:48:42;22.58;;;9.00;;
37349;SDS011;23231;52.358;4.926;2024-02-16T19:53:42;19.38;;;9.00;;
37349;SDS011;23231;52.358;4.926;2024-02-16T19:58:42;22.40;;;9.02;;
37349;SDS011;23231;52.358;4.926;2024-02-16T20:03:43;20.15;;;8.63;;
37349;SDS011;23231;52.358;4.926;2024-02-16T20:08:43;18.98;;;8.48;;
37349;SDS011;23231;52.358;4.926;2024-02-16T20:13:44;19.15;;;8.43;;
37349;SDS011;23231;52.358;4.926;2024-02-16T20:18:44;20.85;;;7.43;;
37349;SDS011;23231;52.358;4.926;2024-02-16T20:23:45;16.17;;;7.47;;
37349;SDS011;23231;52.358;4.926;2024-02-16T20:28:46;14.45;;;7.05;;
37349;SDS011;23231;52.358;4.926;2024-02-16T20:33:46;17.90;;;7.57;;
37349;SDS011;23231;52.358;4.926;2024-02-16T20:38:47;18.98;;;7.60;;
37349;SDS011;23231;52.358;4.926;2024-02-16T20:43:48;16.15;;;6.90;;
37349;SDS011;23231;52.358;4.926;2024-02-16T20:48:48;16.85;;;6.57;;
37349;SDS011;23231;52.358;4.926;2024-02-16T20:53:49;14.95;;;5.78;;
37349;SDS011;23231;52.358;4.926;2024-02-16T20:58:49;14.73;;;6.70;;
37349;SDS011;23231;52.358;4.926;2024-02-16T21:03:50;12.93;;;6.25;;
37349;SDS011;23231;52.358;4.926;2024-02-16T21:08:50;22.77;;;7.00;;
37349;SDS011;23231;52.358;4.926;2024-02-16T21:13:51;17.65;;;6.57;;
37349;SDS011;23231;52.358;4.926;2024-02-16T21:18:51;16.50;;;6.07;;
37349;SDS011;23231;52.358;4.926;2024-02-16T21:23:52;16.77;;;5.57;;
37349;SDS011;23231;52.358;4.926;2024-02-16T21:28:52;16.17;;;6.30;;
37349;SDS011;23231;52.358;4.926;2024-02-16T21:33:52;14.45;;;6.40;;
37349;SDS011;23231;52.358;4.926;2024-02-16T21:38:53;20.45;;;6.57;;
37349;SDS011;23231;52.358;4.926;2024-02-16T21:43:53;14.90;;;6.57;;
37349;SDS011;23231;52.358;4.926;2024-02-16T21:49:00;18.08;;;6.80;;
37349;SDS011;23231;52.358;4.926;2024-02-16T21:54:03;16.02;;;6.60;;
37349;SDS011;23231;52.358;4.926;2024-02-16T21:59:05;12.93;;;6.70;;
37349;SDS011;23231;52.358;4.926;2024-02-16T22:04:06;14.45;;;6.50;;
37349;SDS011;23231;52.358;4.926;2024-02-16T22:09:06;14.50;;;6.18;;
37349;SDS011;23231;52.358;4.926;2024-02-16T22:14:07;12.73;;;6.53;;
37349;SDS011;23231;52.358;4.926;2024-02-16T22:19:08;17.58;;;7.55;;
37349;SDS011;23231;52.358;4.926;2024-02-16T22:24:08;19.52;;;7.80;;
37349;SDS011;23231;52.358;4.926;2024-02-16T22:29:09;16.13;;;7.95;;
37349;SDS011;23231;52.358;4.926;2024-02-16T22:34:10;23.23;;;8.60;;
37349;SDS011;23231;52.358;4.926;2024-02-16T22:39:10;16.10;;;8.15;;
37349;SDS011;23231;52.358;4.926;2024-02-16T22:44:11;23.55;;;9.25;;
37349;SDS011;23231;52.358;4.926;2024-02-16T22:49:11;24.15;;;9.57;;
37349;SDS011;23231;52.358;4.926;2024-02-16T22:54:12;25.40;;;9.82;;
37349;SDS011;23231;52.358;4.926;2024-02-16T22:59:12;21.67;;;9.02;;
37349;SDS011;23231;52.358;4.926;2024-02-16T23:04:13;21.73;;;9.02;;
37349;SDS011;23231;52.358;4.926;2024-02-16T23:09:13;24.63;;;9.52;;
37349;SDS011;23231;52.358;4.926;2024-02-16T23:14:14;23.83;;;8.32;;
37349;SDS011;23231;52.358;4.926;2024-02-16T23:19:15;19.73;;;7.63;;
37349;SDS011;23231;52.358;4.926;2024-02-16T23:24:16;20.20;;;6.80;;
37349;SDS011;23231;52.358;4.926;2024-02-16T23:29:16;20.92;;;7.18;;
37349;SDS011;23231;52.358;4.926;2024-02-16T23:34:17;23.50;;;7.35;;
37349;SDS011;23231;52.358;4.926;2024-02-16T23:39:17;17.30;;;6.75;;
37349;SDS011;23231;52.358;4.926;2024-02-16T23:44:18;13.10;;;6.97;;
37349;SDS011;23231;52.358;4.926;2024-02-16T23:49:18;17.85;;;6.53;;
37349;SDS011;23231;52.358;4.926;2024-02-16T23:54:19;14.60;;;5.95;;
37349;SDS011;23231;52.358;4.926;2024-02-16T23:59:19;14.35;;;6.15;;
